Bindloss, Canada
Current Conditions -  °F | °C
As of 3:00 AM on Thursday 23 Oct 2014 (Local Time) from CYXH Reporting Station
Clear Clear  
Wind Chill: 50°   Ceiling: Unl
Heat Index: 50°   Visibility: 9mi
Dew Point: 36°   Wind: 14mph
Humidity: 58%   Direction: 210°SSW
Pressure: 29.66"   Gusts: NA
Location:  50.88°N, 110.27°W
Report Text: CYXH 230900Z AUTO 21012KT 9SM CLR 10/02 A2966 RMK SLP045 DENSITY ALT 2600FT
Loading
Personal Weather Stations






























Interactive Weather Map New forecast layout! Learn more

10-Day Weather Forecast

Advertisements
Track Severe Weather on mobile